Hauptseite
METAR-TAF:

METAR-TAF

Flughäfen :

Westerland, Deutschland

Flughafen Sylt

Breite: 54-55N, Länge: 008-21E, Höhe: 16 m

Beobachtung

Neuester Wetterbericht von vor 5 Stunden und 9 Minuten, um 15:20 UTC
Wind 8 kt aus Südwest
Temperatur 4°C
Luftfeuchtigkeit 93%
Luftdruck 1024 hPa
Sichtweite 10 km oder mehr
Durchbrochene Bewölkung in der Höhe von 1100 ft

METAR: EDXW 181520Z 22008KT 9999 BKN011 04/03 Q1024

Zeit: 21:29 (20:29 UTC)

Prognose

Neuester Wetterbericht von vor 6 Stunden und 29 Minuten, um 14:00 UTC
Gültige Prognose vom 18 um 15 UTC bis 18 um 18 UTC
Wind 8 kt aus Südwest
Sichtweite: 9000 m
Durchbrochene Bewölkung in der Höhe von 2500 ft
Zeitweise
vom 18 um 15 UTC bis 18 um 18 UTC
Durchbrochene Bewölkung in der Höhe von 1000 ft
Übergehend zu
vom 18 um 17 UTC bis 18 um 18 UTC
Wind 8 kt aus West/Nordwest

TAF: EDXW 181400Z 1815/1818 23008KT 9000 BKN025 TEMPO 1815/1818 BKN010 BECMG 1817/1818 29008KT

Wetterbeobachtungen und Prognosen von mehr als 4000 Flughäfen (METAR und TAF Bericht).

Die verfügbaren Stationen werden durch gelbe und rote Markierungen auf der Karte dargestellt.

Führen Sie die Maus auf sie, um den Namen der Station zu sehen.

Darauf klicken, um die Beobachtung von Wetterbeobachtungen und Prognosen zu sehen.

Um die Karte zu ändern : klicken Sie auf den grünen Tasten mit einem schwarzen Kreuz Zum Vergrößern, auf den grünen Button mit einem Gedankenstrich zu verkleinern, oder auf die grünen Pfeile für benachbarte Karten.


METAR-TAF: